sensor_id;sensor_type;location;lat;lon;timestamp;P1;durP1;ratioP1;P2;durP2;ratioP2
65368;SDS011;51970;53.484;49.488;2022-12-17T00:02:03;21.73;;;9.43;;
65368;SDS011;51970;53.484;49.488;2022-12-17T00:04:48;20.98;;;11.05;;
65368;SDS011;51970;53.484;49.488;2022-12-17T00:07:32;18.30;;;9.90;;
65368;SDS011;51970;53.484;49.488;2022-12-17T00:10:16;15.38;;;9.55;;
65368;SDS011;51970;53.484;49.488;2022-12-17T00:13:01;22.00;;;12.20;;
65368;SDS011;51970;53.484;49.488;2022-12-17T00:15:52;17.88;;;10.82;;
65368;SDS011;51970;53.484;49.488;2022-12-17T00:18:36;19.58;;;10.70;;
65368;SDS011;51970;53.484;49.488;2022-12-17T00:21:21;14.38;;;5.43;;
65368;SDS011;51970;53.484;49.488;2022-12-17T00:24:06;18.55;;;8.30;;
65368;SDS011;51970;53.484;49.488;2022-12-17T00:26:51;17.08;;;8.73;;
65368;SDS011;51970;53.484;49.488;2022-12-17T00:29:35;22.67;;;9.93;;
65368;SDS011;51970;53.484;49.488;2022-12-17T00:32:19;17.52;;;9.55;;
65368;SDS011;51970;53.484;49.488;2022-12-17T00:35:04;17.15;;;11.35;;
65368;SDS011;51970;53.484;49.488;2022-12-17T00:37:49;18.92;;;10.25;;
65368;SDS011;51970;53.484;49.488;2022-12-17T00:40:33;19.23;;;10.05;;
65368;SDS011;51970;53.484;49.488;2022-12-17T00:43:18;15.57;;;5.63;;
65368;SDS011;51970;53.484;49.488;2022-12-17T00:46:02;13.45;;;8.45;;
65368;SDS011;51970;53.484;49.488;2022-12-17T00:48:47;15.82;;;9.32;;
65368;SDS011;51970;53.484;49.488;2022-12-17T00:51:31;14.90;;;6.03;;
65368;SDS011;51970;53.484;49.488;2022-12-17T00:54:30;12.48;;;6.75;;
65368;SDS011;51970;53.484;49.488;2022-12-17T00:57:14;15.98;;;9.63;;
65368;SDS011;51970;53.484;49.488;2022-12-17T00:59:59;17.67;;;8.60;;
65368;SDS011;51970;53.484;49.488;2022-12-17T01:02:43;15.63;;;9.30;;
65368;SDS011;51970;53.484;49.488;2022-12-17T01:05:28;24.52;;;8.77;;
65368;SDS011;51970;53.484;49.488;2022-12-17T01:08:13;16.00;;;9.98;;
65368;SDS011;51970;53.484;49.488;2022-12-17T01:11:00;18.95;;;10.52;;
65368;SDS011;51970;53.484;49.488;2022-12-17T01:13:46;14.43;;;6.18;;
65368;SDS011;51970;53.484;49.488;2022-12-17T01:19:15;16.20;;;8.52;;
65368;SDS011;51970;53.484;49.488;2022-12-17T01:22:00;16.13;;;8.65;;
65368;SDS011;51970;53.484;49.488;2022-12-17T01:24:45;19.40;;;11.25;;
65368;SDS011;51970;53.484;49.488;2022-12-17T01:27:29;22.50;;;9.95;;
65368;SDS011;51970;53.484;49.488;2022-12-17T01:30:13;18.15;;;11.68;;
65368;SDS011;51970;53.484;49.488;2022-12-17T01:33:01;16.63;;;9.20;;
65368;SDS011;51970;53.484;49.488;2022-12-17T01:35:47;19.83;;;9.77;;
65368;SDS011;51970;53.484;49.488;2022-12-17T01:38:32;18.73;;;8.20;;
65368;SDS011;51970;53.484;49.488;2022-12-17T01:41:17;25.40;;;12.30;;
65368;SDS011;51970;53.484;49.488;2022-12-17T01:50:18;16.27;;;8.65;;
65368;SDS011;51970;53.484;49.488;2022-12-17T01:53:06;22.02;;;8.98;;
65368;SDS011;51970;53.484;49.488;2022-12-17T01:55:52;22.20;;;11.02;;
65368;SDS011;51970;53.484;49.488;2022-12-17T01:58:38;20.50;;;10.57;;
65368;SDS011;51970;53.484;49.488;2022-12-17T02:01:24;18.77;;;10.32;;
65368;SDS011;51970;53.484;49.488;2022-12-17T02:04:28;19.88;;;10.48;;
65368;SDS011;51970;53.484;49.488;2022-12-17T02:10:15;21.83;;;10.70;;
65368;SDS011;51970;53.484;49.488;2022-12-17T02:13:13;21.00;;;11.07;;
65368;SDS011;51970;53.484;49.488;2022-12-17T02:16:19;20.45;;;11.45;;
65368;SDS011;51970;53.484;49.488;2022-12-17T02:22:24;14.88;;;7.28;;
65368;SDS011;51970;53.484;49.488;2022-12-17T02:28:16;20.33;;;11.48;;
65368;SDS011;51970;53.484;49.488;2022-12-17T02:31:02;20.25;;;8.65;;
65368;SDS011;51970;53.484;49.488;2022-12-17T02:33:50;19.08;;;11.23;;
65368;SDS011;51970;53.484;49.488;2022-12-17T02:36:35;20.65;;;11.45;;
65368;SDS011;51970;53.484;49.488;2022-12-17T02:39:20;17.73;;;10.13;;
65368;SDS011;51970;53.484;49.488;2022-12-17T02:42:05;24.73;;;11.77;;
65368;SDS011;51970;53.484;49.488;2022-12-17T02:44:50;19.80;;;11.65;;
65368;SDS011;51970;53.484;49.488;2022-12-17T02:47:35;20.58;;;12.00;;
65368;SDS011;51970;53.484;49.488;2022-12-17T02:50:20;21.13;;;12.02;;
65368;SDS011;51970;53.484;49.488;2022-12-17T02:53:10;22.15;;;11.05;;
65368;SDS011;51970;53.484;49.488;2022-12-17T02:55:59;21.73;;;12.65;;
65368;SDS011;51970;53.484;49.488;2022-12-17T02:58:43;23.00;;;13.68;;
65368;SDS011;51970;53.484;49.488;2022-12-17T03:01:27;21.63;;;12.38;;
65368;SDS011;51970;53.484;49.488;2022-12-17T03:04:12;25.38;;;13.43;;
65368;SDS011;51970;53.484;49.488;2022-12-17T03:06:57;24.27;;;11.30;;
65368;SDS011;51970;53.484;49.488;2022-12-17T03:09:42;21.23;;;11.25;;
65368;SDS011;51970;53.484;49.488;2022-12-17T03:12:26;14.23;;;6.10;;
65368;SDS011;51970;53.484;49.488;2022-12-17T03:15:11;21.80;;;11.20;;
65368;SDS011;51970;53.484;49.488;2022-12-17T03:17:57;21.67;;;11.68;;
65368;SDS011;51970;53.484;49.488;2022-12-17T03:20:42;17.85;;;7.10;;
65368;SDS011;51970;53.484;49.488;2022-12-17T03:23:26;20.55;;;11.40;;
65368;SDS011;51970;53.484;49.488;2022-12-17T03:26:12;22.52;;;11.88;;
65368;SDS011;51970;53.484;49.488;2022-12-17T03:28:56;28.00;;;12.43;;
65368;SDS011;51970;53.484;49.488;2022-12-17T03:31:59;26.50;;;13.80;;
65368;SDS011;51970;53.484;49.488;2022-12-17T03:34:48;28.60;;;13.82;;
65368;SDS011;51970;53.484;49.488;2022-12-17T03:37:34;25.55;;;14.75;;
65368;SDS011;51970;53.484;49.488;2022-12-17T03:40:19;24.17;;;13.57;;
65368;SDS011;51970;53.484;49.488;2022-12-17T03:43:09;24.20;;;13.20;;
65368;SDS011;51970;53.484;49.488;2022-12-17T03:45:56;27.95;;;12.07;;
65368;SDS011;51970;53.484;49.488;2022-12-17T03:48:41;23.05;;;12.95;;
65368;SDS011;51970;53.484;49.488;2022-12-17T03:51:26;29.80;;;13.68;;
65368;SDS011;51970;53.484;49.488;2022-12-17T03:54:12;24.33;;;12.75;;
65368;SDS011;51970;53.484;49.488;2022-12-17T03:56:57;23.63;;;14.40;;
65368;SDS011;51970;53.484;49.488;2022-12-17T03:59:42;25.98;;;10.73;;
65368;SDS011;51970;53.484;49.488;2022-12-17T04:02:26;24.02;;;12.75;;
65368;SDS011;51970;53.484;49.488;2022-12-17T04:05:10;26.42;;;13.90;;
65368;SDS011;51970;53.484;49.488;2022-12-17T04:07:58;28.20;;;11.93;;
65368;SDS011;51970;53.484;49.488;2022-12-17T04:10:50;27.67;;;14.10;;
65368;SDS011;51970;53.484;49.488;2022-12-17T04:13:40;20.88;;;13.30;;
65368;SDS011;51970;53.484;49.488;2022-12-17T04:16:24;27.67;;;13.13;;
65368;SDS011;51970;53.484;49.488;2022-12-17T04:19:09;27.33;;;14.55;;
65368;SDS011;51970;53.484;49.488;2022-12-17T04:22:16;28.02;;;14.07;;
65368;SDS011;51970;53.484;49.488;2022-12-17T04:25:03;30.80;;;14.73;;
65368;SDS011;51970;53.484;49.488;2022-12-17T04:27:47;24.38;;;13.45;;
65368;SDS011;51970;53.484;49.488;2022-12-17T04:30:33;23.88;;;12.50;;
65368;SDS011;51970;53.484;49.488;2022-12-17T04:33:19;21.50;;;8.82;;
65368;SDS011;51970;53.484;49.488;2022-12-17T04:36:04;26.80;;;14.20;;
65368;SDS011;51970;53.484;49.488;2022-12-17T04:38:49;21.88;;;13.15;;
65368;SDS011;51970;53.484;49.488;2022-12-17T04:41:50;23.63;;;13.18;;
65368;SDS011;51970;53.484;49.488;2022-12-17T04:44:51;18.38;;;12.15;;
65368;SDS011;51970;53.484;49.488;2022-12-17T04:47:36;25.38;;;12.95;;
65368;SDS011;51970;53.484;49.488;2022-12-17T04:50:21;22.70;;;13.95;;
65368;SDS011;51970;53.484;49.488;2022-12-17T04:53:06;20.83;;;9.65;;
65368;SDS011;51970;53.484;49.488;2022-12-17T04:55:53;20.27;;;9.05;;
65368;SDS011;51970;53.484;49.488;2022-12-17T04:58:45;29.35;;;14.25;;
65368;SDS011;51970;53.484;49.488;2022-12-17T05:01:32;25.60;;;14.50;;
65368;SDS011;51970;53.484;49.488;2022-12-17T05:04:37;24.38;;;13.15;;
65368;SDS011;51970;53.484;49.488;2022-12-17T05:07:26;28.45;;;16.25;;
65368;SDS011;51970;53.484;49.488;2022-12-17T05:10:12;24.55;;;13.07;;
65368;SDS011;51970;53.484;49.488;2022-12-17T05:13:19;26.33;;;13.02;;
65368;SDS011;51970;53.484;49.488;2022-12-17T05:16:03;33.33;;;14.35;;
65368;SDS011;51970;53.484;49.488;2022-12-17T05:18:49;26.33;;;13.20;;
65368;SDS011;51970;53.484;49.488;2022-12-17T05:21:33;27.70;;;14.68;;
65368;SDS011;51970;53.484;49.488;2022-12-17T05:24:36;28.27;;;15.27;;
65368;SDS011;51970;53.484;49.488;2022-12-17T05:27:30;28.33;;;14.82;;
65368;SDS011;51970;53.484;49.488;2022-12-17T05:30:30;22.55;;;12.60;;
65368;SDS011;51970;53.484;49.488;2022-12-17T05:33:18;24.58;;;13.30;;
65368;SDS011;51970;53.484;49.488;2022-12-17T05:36:17;26.30;;;14.40;;
65368;SDS011;51970;53.484;49.488;2022-12-17T05:39:10;23.70;;;13.45;;
65368;SDS011;51970;53.484;49.488;2022-12-17T05:42:02;27.13;;;14.77;;
65368;SDS011;51970;53.484;49.488;2022-12-17T05:45:01;25.70;;;13.98;;
65368;SDS011;51970;53.484;49.488;2022-12-17T05:48:31;24.23;;;12.82;;
65368;SDS011;51970;53.484;49.488;2022-12-17T05:52:02;24.20;;;10.80;;
65368;SDS011;51970;53.484;49.488;2022-12-17T05:54:55;28.13;;;14.25;;
65368;SDS011;51970;53.484;49.488;2022-12-17T05:58:06;27.20;;;14.25;;
65368;SDS011;51970;53.484;49.488;2022-12-17T06:01:20;24.65;;;13.65;;
65368;SDS011;51970;53.484;49.488;2022-12-17T06:06:02;24.70;;;13.93;;
65368;SDS011;51970;53.484;49.488;2022-12-17T06:09:16;23.90;;;12.23;;
65368;SDS011;51970;53.484;49.488;2022-12-17T06:12:21;26.75;;;10.00;;
65368;SDS011;51970;53.484;49.488;2022-12-17T06:15:34;26.30;;;13.80;;
65368;SDS011;51970;53.484;49.488;2022-12-17T06:18:37;24.92;;;12.35;;
65368;SDS011;51970;53.484;49.488;2022-12-17T06:21:29;29.58;;;13.73;;
65368;SDS011;51970;53.484;49.488;2022-12-17T06:24:43;33.92;;;15.75;;
65368;SDS011;51970;53.484;49.488;2022-12-17T06:28:00;31.42;;;15.48;;
65368;SDS011;51970;53.484;49.488;2022-12-17T06:30:50;32.08;;;14.52;;
65368;SDS011;51970;53.484;49.488;2022-12-17T06:33:42;33.22;;;15.02;;
65368;SDS011;51970;53.484;49.488;2022-12-17T06:36:43;25.92;;;14.95;;
65368;SDS011;51970;53.484;49.488;2022-12-17T06:39:53;26.33;;;13.93;;
65368;SDS011;51970;53.484;49.488;2022-12-17T06:42:51;24.85;;;14.00;;
65368;SDS011;51970;53.484;49.488;2022-12-17T06:45:39;26.95;;;11.15;;
65368;SDS011;51970;53.484;49.488;2022-12-17T06:48:32;26.08;;;14.68;;
65368;SDS011;51970;53.484;49.488;2022-12-17T06:52:18;31.42;;;14.18;;
65368;SDS011;51970;53.484;49.488;2022-12-17T06:55:19;26.55;;;14.52;;
65368;SDS011;51970;53.484;49.488;2022-12-17T06:58:22;27.75;;;15.07;;
65368;SDS011;51970;53.484;49.488;2022-12-17T07:02:00;32.85;;;15.45;;
65368;SDS011;51970;53.484;49.488;2022-12-17T07:05:06;25.52;;;14.68;;
65368;SDS011;51970;53.484;49.488;2022-12-17T07:13:40;24.80;;;13.52;;
65368;SDS011;51970;53.484;49.488;2022-12-17T07:18:22;30.73;;;16.23;;
65368;SDS011;51970;53.484;49.488;2022-12-17T07:22:30;28.25;;;14.52;;
65368;SDS011;51970;53.484;49.488;2022-12-17T07:27:32;29.50;;;12.05;;
65368;SDS011;51970;53.484;49.488;2022-12-17T07:31:57;28.33;;;15.77;;
65368;SDS011;51970;53.484;49.488;2022-12-17T07:36:20;31.67;;;15.68;;
65368;SDS011;51970;53.484;49.488;2022-12-17T07:39:47;29.13;;;16.13;;
65368;SDS011;51970;53.484;49.488;2022-12-17T07:42:57;36.13;;;18.58;;
65368;SDS011;51970;53.484;49.488;2022-12-17T07:46:09;36.05;;;17.75;;
65368;SDS011;51970;53.484;49.488;2022-12-17T07:49:14;31.88;;;15.82;;
65368;SDS011;51970;53.484;49.488;2022-12-17T07:52:14;32.83;;;15.77;;
65368;SDS011;51970;53.484;49.488;2022-12-17T07:55:43;34.15;;;12.98;;
65368;SDS011;51970;53.484;49.488;2022-12-17T07:58:40;30.90;;;11.35;;
65368;SDS011;51970;53.484;49.488;2022-12-17T08:01:59;28.80;;;15.80;;
65368;SDS011;51970;53.484;49.488;2022-12-17T08:05:34;29.85;;;15.23;;
65368;SDS011;51970;53.484;49.488;2022-12-17T08:09:18;32.22;;;15.27;;
65368;SDS011;51970;53.484;49.488;2022-12-17T08:16:09;28.90;;;15.48;;
65368;SDS011;51970;53.484;49.488;2022-12-17T08:19:24;31.30;;;17.67;;
65368;SDS011;51970;53.484;49.488;2022-12-17T08:22:58;33.03;;;12.32;;
65368;SDS011;51970;53.484;49.488;2022-12-17T08:25:46;35.42;;;15.18;;
65368;SDS011;51970;53.484;49.488;2022-12-17T08:29:01;35.30;;;19.52;;
65368;SDS011;51970;53.484;49.488;2022-12-17T08:32:25;37.67;;;18.25;;
65368;SDS011;51970;53.484;49.488;2022-12-17T08:35:59;35.95;;;17.20;;
65368;SDS011;51970;53.484;49.488;2022-12-17T08:39:08;25.17;;;15.45;;
65368;SDS011;51970;53.484;49.488;2022-12-17T08:43:27;26.60;;;13.40;;
65368;SDS011;51970;53.484;49.488;2022-12-17T08:46:49;25.02;;;12.57;;
65368;SDS011;51970;53.484;49.488;2022-12-17T08:53:07;25.55;;;14.35;;
65368;SDS011;51970;53.484;49.488;2022-12-17T08:56:22;29.17;;;15.70;;
65368;SDS011;51970;53.484;49.488;2022-12-17T08:59:31;28.58;;;15.05;;
65368;SDS011;51970;53.484;49.488;2022-12-17T09:02:55;26.30;;;13.23;;
65368;SDS011;51970;53.484;49.488;2022-12-17T09:06:04;38.35;;;16.63;;
65368;SDS011;51970;53.484;49.488;2022-12-17T09:09:01;27.80;;;14.73;;
65368;SDS011;51970;53.484;49.488;2022-12-17T09:13:16;33.42;;;16.73;;
65368;SDS011;51970;53.484;49.488;2022-12-17T09:16:21;30.55;;;14.57;;
65368;SDS011;51970;53.484;49.488;2022-12-17T09:19:28;29.55;;;14.05;;
65368;SDS011;51970;53.484;49.488;2022-12-17T09:22:49;30.42;;;16.52;;
65368;SDS011;51970;53.484;49.488;2022-12-17T09:26:23;28.95;;;15.13;;
65368;SDS011;51970;53.484;49.488;2022-12-17T09:29:34;26.73;;;12.75;;
65368;SDS011;51970;53.484;49.488;2022-12-17T09:33:03;29.30;;;15.40;;
65368;SDS011;51970;53.484;49.488;2022-12-17T09:35:54;26.35;;;15.73;;
65368;SDS011;51970;53.484;49.488;2022-12-17T09:39:03;20.15;;;10.82;;
65368;SDS011;51970;53.484;49.488;2022-12-17T09:43:02;24.83;;;14.07;;
65368;SDS011;51970;53.484;49.488;2022-12-17T09:49:48;29.45;;;17.85;;
65368;SDS011;51970;53.484;49.488;2022-12-17T09:52:54;27.25;;;15.70;;
65368;SDS011;51970;53.484;49.488;2022-12-17T09:56:32;25.02;;;15.25;;
65368;SDS011;51970;53.484;49.488;2022-12-17T10:00:12;27.00;;;16.05;;
65368;SDS011;51970;53.484;49.488;2022-12-17T10:07:07;28.67;;;16.83;;
65368;SDS011;51970;53.484;49.488;2022-12-17T10:10:56;27.88;;;15.13;;
65368;SDS011;51970;53.484;49.488;2022-12-17T10:14:20;30.45;;;16.35;;
65368;SDS011;51970;53.484;49.488;2022-12-17T10:17:24;29.40;;;14.68;;
65368;SDS011;51970;53.484;49.488;2022-12-17T10:24:24;28.92;;;14.52;;
65368;SDS011;51970;53.484;49.488;2022-12-17T10:32:21;29.00;;;14.80;;
65368;SDS011;51970;53.484;49.488;2022-12-17T10:35:58;27.80;;;14.43;;
65368;SDS011;51970;53.484;49.488;2022-12-17T10:48:24;28.35;;;14.30;;
65368;SDS011;51970;53.484;49.488;2022-12-17T10:57:40;39.85;;;17.50;;
65368;SDS011;51970;53.484;49.488;2022-12-17T11:01:33;27.50;;;11.95;;
65368;SDS011;51970;53.484;49.488;2022-12-17T11:05:33;29.40;;;14.98;;
65368;SDS011;51970;53.484;49.488;2022-12-17T11:13:45;29.75;;;14.63;;
65368;SDS011;51970;53.484;49.488;2022-12-17T11:17:29;24.67;;;13.48;;
65368;SDS011;51970;53.484;49.488;2022-12-17T11:29:38;21.27;;;12.30;;
65368;SDS011;51970;53.484;49.488;2022-12-17T11:33:44;20.17;;;10.75;;
65368;SDS011;51970;53.484;49.488;2022-12-17T11:42:27;24.48;;;13.13;;
65368;SDS011;51970;53.484;49.488;2022-12-17T11:49:57;17.45;;;8.45;;
65368;SDS011;51970;53.484;49.488;2022-12-17T11:53:05;20.85;;;11.38;;
65368;SDS011;51970;53.484;49.488;2022-12-17T11:56:23;30.52;;;14.07;;
65368;SDS011;51970;53.484;49.488;2022-12-17T11:59:43;22.17;;;13.52;;
65368;SDS011;51970;53.484;49.488;2022-12-17T12:11:20;20.08;;;11.50;;
65368;SDS011;51970;53.484;49.488;2022-12-17T12:15:22;18.77;;;11.18;;
65368;SDS011;51970;53.484;49.488;2022-12-17T12:26:12;18.83;;;9.70;;
65368;SDS011;51970;53.484;49.488;2022-12-17T12:33:47;13.80;;;8.68;;
65368;SDS011;51970;53.484;49.488;2022-12-17T12:37:06;20.13;;;9.77;;
65368;SDS011;51970;53.484;49.488;2022-12-17T12:43:53;22.33;;;7.53;;
65368;SDS011;51970;53.484;49.488;2022-12-17T12:47:22;16.95;;;9.60;;
65368;SDS011;51970;53.484;49.488;2022-12-17T12:51:35;19.48;;;12.10;;
65368;SDS011;51970;53.484;49.488;2022-12-17T12:54:56;18.40;;;10.75;;
65368;SDS011;51970;53.484;49.488;2022-12-17T12:58:46;15.23;;;9.05;;
65368;SDS011;51970;53.484;49.488;2022-12-17T13:01:36;17.17;;;10.10;;
65368;SDS011;51970;53.484;49.488;2022-12-17T13:09:45;20.08;;;9.75;;
65368;SDS011;51970;53.484;49.488;2022-12-17T13:12:51;17.35;;;10.95;;
65368;SDS011;51970;53.484;49.488;2022-12-17T13:25:17;19.60;;;9.98;;
65368;SDS011;51970;53.484;49.488;2022-12-17T13:28:34;20.33;;;7.50;;
65368;SDS011;51970;53.484;49.488;2022-12-17T13:38:56;15.45;;;8.20;;
65368;SDS011;51970;53.484;49.488;2022-12-17T13:42:02;13.82;;;10.05;;
65368;SDS011;51970;53.484;49.488;2022-12-17T13:44:54;15.35;;;9.73;;
65368;SDS011;51970;53.484;49.488;2022-12-17T13:48:17;17.42;;;10.35;;
65368;SDS011;51970;53.484;49.488;2022-12-17T13:51:01;15.10;;;9.38;;
65368;SDS011;51970;53.484;49.488;2022-12-17T13:53:40;13.25;;;5.82;;
65368;SDS011;51970;53.484;49.488;2022-12-17T13:56:23;22.35;;;10.85;;
65368;SDS011;51970;53.484;49.488;2022-12-17T13:59:01;22.00;;;10.32;;
65368;SDS011;51970;53.484;49.488;2022-12-17T14:02:25;23.50;;;10.60;;
65368;SDS011;51970;53.484;49.488;2022-12-17T14:05:50;16.20;;;8.48;;
65368;SDS011;51970;53.484;49.488;2022-12-17T14:08:54;16.88;;;10.45;;
65368;SDS011;51970;53.484;49.488;2022-12-17T14:11:31;30.17;;;8.45;;
65368;SDS011;51970;53.484;49.488;2022-12-17T14:15:18;14.15;;;8.40;;
65368;SDS011;51970;53.484;49.488;2022-12-17T14:18:29;21.92;;;10.18;;
65368;SDS011;51970;53.484;49.488;2022-12-17T14:21:25;15.43;;;9.40;;
65368;SDS011;51970;53.484;49.488;2022-12-17T14:24:50;14.65;;;9.98;;
65368;SDS011;51970;53.484;49.488;2022-12-17T14:27:25;20.35;;;9.82;;
65368;SDS011;51970;53.484;49.488;2022-12-17T14:29:59;23.02;;;11.57;;
65368;SDS011;51970;53.484;49.488;2022-12-17T14:33:33;33.20;;;11.25;;
65368;SDS011;51970;53.484;49.488;2022-12-17T14:36:56;22.10;;;9.98;;
65368;SDS011;51970;53.484;49.488;2022-12-17T14:39:59;24.88;;;9.57;;
65368;SDS011;51970;53.484;49.488;2022-12-17T14:43:22;20.98;;;10.18;;
65368;SDS011;51970;53.484;49.488;2022-12-17T14:46:43;16.33;;;10.38;;
65368;SDS011;51970;53.484;49.488;2022-12-17T14:49:21;21.38;;;9.85;;
65368;SDS011;51970;53.484;49.488;2022-12-17T14:52:12;19.70;;;11.55;;
65368;SDS011;51970;53.484;49.488;2022-12-17T14:58:23;24.25;;;10.18;;
65368;SDS011;51970;53.484;49.488;2022-12-17T15:01:36;18.80;;;9.50;;
65368;SDS011;51970;53.484;49.488;2022-12-17T15:06:55;24.27;;;9.52;;
65368;SDS011;51970;53.484;49.488;2022-12-17T15:09:35;16.73;;;10.65;;
65368;SDS011;51970;53.484;49.488;2022-12-17T15:12:42;16.90;;;7.20;;
65368;SDS011;51970;53.484;49.488;2022-12-17T15:15:25;14.88;;;9.77;;
65368;SDS011;51970;53.484;49.488;2022-12-17T15:17:53;21.42;;;8.95;;
65368;SDS011;51970;53.484;49.488;2022-12-17T15:24:43;14.95;;;7.97;;
65368;SDS011;51970;53.484;49.488;2022-12-17T15:27:16;17.33;;;8.93;;
65368;SDS011;51970;53.484;49.488;2022-12-17T15:30:12;18.23;;;8.68;;
65368;SDS011;51970;53.484;49.488;2022-12-17T15:32:44;18.27;;;10.82;;
65368;SDS011;51970;53.484;49.488;2022-12-17T15:35:21;14.48;;;9.98;;
65368;SDS011;51970;53.484;49.488;2022-12-17T15:38:31;18.23;;;8.35;;
65368;SDS011;51970;53.484;49.488;2022-12-17T15:42:32;17.90;;;11.23;;
65368;SDS011;51970;53.484;49.488;2022-12-17T15:49:26;12.73;;;5.63;;
65368;SDS011;51970;53.484;49.488;2022-12-17T15:51:52;15.25;;;10.02;;
65368;SDS011;51970;53.484;49.488;2022-12-17T15:58:04;14.73;;;9.23;;
65368;SDS011;51970;53.484;49.488;2022-12-17T16:00:44;14.55;;;9.40;;
65368;SDS011;51970;53.484;49.488;2022-12-17T16:03:17;20.17;;;11.02;;
65368;SDS011;51970;53.484;49.488;2022-12-17T16:06:31;16.23;;;9.05;;
65368;SDS011;51970;53.484;49.488;2022-12-17T16:09:08;16.73;;;8.80;;
65368;SDS011;51970;53.484;49.488;2022-12-17T16:12:02;22.48;;;9.32;;
65368;SDS011;51970;53.484;49.488;2022-12-17T16:15:16;15.45;;;9.98;;
65368;SDS011;51970;53.484;49.488;2022-12-17T16:17:48;15.32;;;10.60;;
65368;SDS011;51970;53.484;49.488;2022-12-17T16:24:04;14.50;;;6.93;;
65368;SDS011;51970;53.484;49.488;2022-12-17T16:27:49;16.70;;;9.00;;
65368;SDS011;51970;53.484;49.488;2022-12-17T16:30:41;15.05;;;10.07;;
65368;SDS011;51970;53.484;49.488;2022-12-17T16:34:34;23.20;;;10.60;;
65368;SDS011;51970;53.484;49.488;2022-12-17T16:38:16;17.48;;;9.55;;
65368;SDS011;51970;53.484;49.488;2022-12-17T16:40:42;18.60;;;11.55;;
65368;SDS011;51970;53.484;49.488;2022-12-17T16:43:12;17.88;;;9.55;;
65368;SDS011;51970;53.484;49.488;2022-12-17T16:45:45;17.83;;;10.60;;
65368;SDS011;51970;53.484;49.488;2022-12-17T16:48:14;18.38;;;10.70;;
65368;SDS011;51970;53.484;49.488;2022-12-17T16:50:47;18.80;;;10.57;;
65368;SDS011;51970;53.484;49.488;2022-12-17T16:53:25;18.52;;;8.82;;
65368;SDS011;51970;53.484;49.488;2022-12-17T16:58:41;20.38;;;10.55;;
65368;SDS011;51970;53.484;49.488;2022-12-17T17:01:24;20.50;;;7.68;;
65368;SDS011;51970;53.484;49.488;2022-12-17T17:04:22;15.32;;;9.40;;
65368;SDS011;51970;53.484;49.488;2022-12-17T17:06:55;16.27;;;10.88;;
65368;SDS011;51970;53.484;49.488;2022-12-17T17:09:36;16.10;;;8.82;;
65368;SDS011;51970;53.484;49.488;2022-12-17T17:12:51;17.95;;;10.00;;
65368;SDS011;51970;53.484;49.488;2022-12-17T17:15:21;22.60;;;10.75;;
65368;SDS011;51970;53.484;49.488;2022-12-17T17:18:16;22.08;;;7.75;;
65368;SDS011;51970;53.484;49.488;2022-12-17T17:23:57;20.73;;;9.55;;
65368;SDS011;51970;53.484;49.488;2022-12-17T17:26:46;22.50;;;11.05;;
65368;SDS011;51970;53.484;49.488;2022-12-17T17:30:10;14.40;;;7.75;;
65368;SDS011;51970;53.484;49.488;2022-12-17T17:32:41;16.25;;;9.50;;
65368;SDS011;51970;53.484;49.488;2022-12-17T17:35:20;19.60;;;11.23;;
65368;SDS011;51970;53.484;49.488;2022-12-17T17:37:48;14.88;;;8.10;;
65368;SDS011;51970;53.484;49.488;2022-12-17T17:41:02;15.77;;;8.77;;
65368;SDS011;51970;53.484;49.488;2022-12-17T17:44:25;17.35;;;10.82;;
65368;SDS011;51970;53.484;49.488;2022-12-17T17:47:53;20.77;;;8.43;;
65368;SDS011;51970;53.484;49.488;2022-12-17T17:50:34;13.70;;;6.00;;
65368;SDS011;51970;53.484;49.488;2022-12-17T17:53:29;16.05;;;10.02;;
65368;SDS011;51970;53.484;49.488;2022-12-17T17:56:41;14.73;;;8.60;;
65368;SDS011;51970;53.484;49.488;2022-12-17T17:59:31;15.10;;;8.25;;
65368;SDS011;51970;53.484;49.488;2022-12-17T18:02:37;14.40;;;9.00;;
65368;SDS011;51970;53.484;49.488;2022-12-17T18:05:11;15.65;;;11.00;;
65368;SDS011;51970;53.484;49.488;2022-12-17T18:08:49;14.38;;;7.50;;
65368;SDS011;51970;53.484;49.488;2022-12-17T18:16:46;20.67;;;8.95;;
65368;SDS011;51970;53.484;49.488;2022-12-17T18:23:01;13.68;;;7.57;;
65368;SDS011;51970;53.484;49.488;2022-12-17T18:25:30;15.02;;;8.02;;
65368;SDS011;51970;53.484;49.488;2022-12-17T18:28:02;13.43;;;7.53;;
65368;SDS011;51970;53.484;49.488;2022-12-17T18:30:51;12.43;;;5.38;;
65368;SDS011;51970;53.484;49.488;2022-12-17T18:33:37;16.10;;;8.75;;
65368;SDS011;51970;53.484;49.488;2022-12-17T18:36:12;15.05;;;7.93;;
65368;SDS011;51970;53.484;49.488;2022-12-17T18:38:44;13.18;;;6.25;;
65368;SDS011;51970;53.484;49.488;2022-12-17T18:41:22;13.55;;;8.85;;
65368;SDS011;51970;53.484;49.488;2022-12-17T18:48:14;15.05;;;10.48;;
65368;SDS011;51970;53.484;49.488;2022-12-17T18:50:56;13.73;;;7.97;;
65368;SDS011;51970;53.484;49.488;2022-12-17T18:54:27;18.55;;;9.05;;
65368;SDS011;51970;53.484;49.488;2022-12-17T18:57:27;16.77;;;9.13;;
65368;SDS011;51970;53.484;49.488;2022-12-17T19:04:11;15.82;;;8.13;;
65368;SDS011;51970;53.484;49.488;2022-12-17T19:06:47;13.13;;;8.38;;
65368;SDS011;51970;53.484;49.488;2022-12-17T19:09:30;16.92;;;8.68;;
65368;SDS011;51970;53.484;49.488;2022-12-17T19:12:06;15.05;;;10.38;;
65368;SDS011;51970;53.484;49.488;2022-12-17T19:14:38;15.48;;;8.02;;
65368;SDS011;51970;53.484;49.488;2022-12-17T19:17:08;15.52;;;5.82;;
65368;SDS011;51970;53.484;49.488;2022-12-17T19:19:34;16.05;;;9.15;;
65368;SDS011;51970;53.484;49.488;2022-12-17T19:22:09;13.07;;;7.93;;
65368;SDS011;51970;53.484;49.488;2022-12-17T19:24:41;10.55;;;6.75;;
65368;SDS011;51970;53.484;49.488;2022-12-17T19:27:39;13.20;;;7.28;;
65368;SDS011;51970;53.484;49.488;2022-12-17T19:30:06;16.60;;;8.10;;
65368;SDS011;51970;53.484;49.488;2022-12-17T19:32:55;16.15;;;8.32;;
65368;SDS011;51970;53.484;49.488;2022-12-17T19:35:22;15.65;;;8.43;;
65368;SDS011;51970;53.484;49.488;2022-12-17T19:38:10;19.63;;;8.70;;
65368;SDS011;51970;53.484;49.488;2022-12-17T19:40:38;15.25;;;7.65;;
65368;SDS011;51970;53.484;49.488;2022-12-17T19:43:36;13.05;;;8.85;;
65368;SDS011;51970;53.484;49.488;2022-12-17T19:46:25;19.70;;;9.27;;
65368;SDS011;51970;53.484;49.488;2022-12-17T19:48:53;17.63;;;8.85;;
65368;SDS011;51970;53.484;49.488;2022-12-17T19:51:31;19.25;;;10.57;;
65368;SDS011;51970;53.484;49.488;2022-12-17T19:54:13;16.00;;;8.73;;
65368;SDS011;51970;53.484;49.488;2022-12-17T19:56:45;17.63;;;8.98;;
65368;SDS011;51970;53.484;49.488;2022-12-17T19:59:38;13.93;;;8.00;;
65368;SDS011;51970;53.484;49.488;2022-12-17T20:02:26;12.35;;;8.48;;
65368;SDS011;51970;53.484;49.488;2022-12-17T20:04:52;13.68;;;8.80;;
65368;SDS011;51970;53.484;49.488;2022-12-17T20:07:18;13.48;;;8.38;;
65368;SDS011;51970;53.484;49.488;2022-12-17T20:09:45;14.35;;;7.80;;
65368;SDS011;51970;53.484;49.488;2022-12-17T20:12:11;17.48;;;9.48;;
65368;SDS011;51970;53.484;49.488;2022-12-17T20:14:40;13.38;;;8.00;;